sensor_id;sensor_type;location;lat;lon;timestamp;temperature;humidity
65040;HTU21D;51606;45.000;38.612;2023-03-14T05:32:55;4.71;75.29
65040;HTU21D;51606;45.000;38.612;2023-03-14T05:35:51;4.77;75.25
65040;HTU21D;51606;45.000;38.612;2023-03-14T05:38:36;4.84;75.17
65040;HTU21D;51606;45.000;38.612;2023-03-14T05:41:21;4.92;75.09
65040;HTU21D;51606;45.000;38.612;2023-03-14T05:43:56;4.98;74.97
65040;HTU21D;51606;45.000;38.612;2023-03-14T05:46:34;5.04;74.89
65040;HTU21D;51606;45.000;38.612;2023-03-14T05:49:21;5.10;74.83
65040;HTU21D;51606;45.000;38.612;2023-03-14T05:51:56;5.18;74.80
65040;HTU21D;51606;45.000;38.612;2023-03-14T05:54:43;5.26;74.71
65040;HTU21D;51606;45.000;38.612;2023-03-14T05:57:34;5.35;74.60
65040;HTU21D;51606;45.000;38.612;2023-03-14T06:00:19;5.43;74.45
65040;HTU21D;51606;45.000;38.612;2023-03-14T06:02:57;5.52;74.38
65040;HTU21D;51606;45.000;38.612;2023-03-14T06:05:29;5.61;74.31
65040;HTU21D;51606;45.000;38.612;2023-03-14T06:07:59;5.69;74.08
65040;HTU21D;51606;45.000;38.612;2023-03-14T06:10:27;5.75;74.04
65040;HTU21D;51606;45.000;38.612;2023-03-14T06:12:54;5.77;73.87
65040;HTU21D;51606;45.000;38.612;2023-03-14T06:15:20;5.79;73.90
65040;HTU21D;51606;45.000;38.612;2023-03-14T06:17:49;5.77;73.88
65040;HTU21D;51606;45.000;38.612;2023-03-14T06:20:17;5.75;73.95
65040;HTU21D;51606;45.000;38.612;2023-03-14T06:22:43;5.71;73.95
65040;HTU21D;51606;45.000;38.612;2023-03-14T06:25:11;5.70;74.00
65040;HTU21D;51606;45.000;38.612;2023-03-14T06:27:38;5.70;74.01
65040;HTU21D;51606;45.000;38.612;2023-03-14T06:30:05;5.72;73.98
65040;HTU21D;51606;45.000;38.612;2023-03-14T06:32:32;5.70;73.96
65040;HTU21D;51606;45.000;38.612;2023-03-14T06:35:03;5.69;73.99
65040;HTU21D;51606;45.000;38.612;2023-03-14T06:37:35;5.69;74.03
65040;HTU21D;51606;45.000;38.612;2023-03-14T06:40:02;5.69;73.99
65040;HTU21D;51606;45.000;38.612;2023-03-14T06:42:47;5.64;73.95
65040;HTU21D;51606;45.000;38.612;2023-03-14T06:45:15;5.64;73.94
65040;HTU21D;51606;45.000;38.612;2023-03-14T06:47:42;5.68;73.96
65040;HTU21D;51606;45.000;38.612;2023-03-14T06:53:44;5.81;73.83
65040;HTU21D;51606;45.000;38.612;2023-03-14T06:56:13;5.85;73.79
65040;HTU21D;51606;45.000;38.612;2023-03-14T06:58:39;5.94;73.71
65040;HTU21D;51606;45.000;38.612;2023-03-14T07:01:20;5.97;73.63
65040;HTU21D;51606;45.000;38.612;2023-03-14T07:03:47;6.02;73.58
65040;HTU21D;51606;45.000;38.612;2023-03-14T07:06:13;6.02;73.41
65040;HTU21D;51606;45.000;38.612;2023-03-14T07:08:40;6.04;73.41
65040;HTU21D;51606;45.000;38.612;2023-03-14T07:11:08;6.06;73.37
65040;HTU21D;51606;45.000;38.612;2023-03-14T07:13:38;6.09;73.30
65040;HTU21D;51606;45.000;38.612;2023-03-14T07:16:07;6.12;73.25
65040;HTU21D;51606;45.000;38.612;2023-03-14T07:18:33;6.14;73.09
65040;HTU21D;51606;45.000;38.612;2023-03-14T07:21:07;6.15;73.00
65040;HTU21D;51606;45.000;38.612;2023-03-14T07:23:36;6.19;73.00
65040;HTU21D;51606;45.000;38.612;2023-03-14T07:26:02;6.20;72.95
65040;HTU21D;51606;45.000;38.612;2023-03-14T07:28:31;6.25;72.96
65040;HTU21D;51606;45.000;38.612;2023-03-14T07:31:03;6.31;72.95
65040;HTU21D;51606;45.000;38.612;2023-03-14T07:33:31;6.39;72.91
65040;HTU21D;51606;45.000;38.612;2023-03-14T07:35:59;6.41;72.82
65040;HTU21D;51606;45.000;38.612;2023-03-14T07:38:25;6.51;72.84
65040;HTU21D;51606;45.000;38.612;2023-03-14T07:41:10;6.54;72.73
65040;HTU21D;51606;45.000;38.612;2023-03-14T07:43:44;6.60;72.73
65040;HTU21D;51606;45.000;38.612;2023-03-14T07:46:11;6.68;72.71
65040;HTU21D;51606;45.000;38.612;2023-03-14T07:48:37;6.69;72.61
65040;HTU21D;51606;45.000;38.612;2023-03-14T07:51:03;6.73;72.66
65040;HTU21D;51606;45.000;38.612;2023-03-14T07:53:30;6.78;72.64
65040;HTU21D;51606;45.000;38.612;2023-03-14T07:55:56;6.76;72.61
65040;HTU21D;51606;45.000;38.612;2023-03-14T07:58:22;6.73;72.54
65040;HTU21D;51606;45.000;38.612;2023-03-14T08:00:50;6.72;72.53
65040;HTU21D;51606;45.000;38.612;2023-03-14T08:03:17;6.72;72.49
65040;HTU21D;51606;45.000;38.612;2023-03-14T08:05:45;6.72;72.39
65040;HTU21D;51606;45.000;38.612;2023-03-14T08:08:12;6.71;72.45
65040;HTU21D;51606;45.000;38.612;2023-03-14T08:10:39;6.75;72.34
65040;HTU21D;51606;45.000;38.612;2023-03-14T08:13:05;6.74;72.31
65040;HTU21D;51606;45.000;38.612;2023-03-14T08:15:31;6.71;72.30
65040;HTU21D;51606;45.000;38.612;2023-03-14T08:17:57;6.71;72.36
65040;HTU21D;51606;45.000;38.612;2023-03-14T08:20:27;6.66;72.34
65040;HTU21D;51606;45.000;38.612;2023-03-14T08:22:58;6.60;72.48
65040;HTU21D;51606;45.000;38.612;2023-03-14T08:25:25;6.58;72.62
65040;HTU21D;51606;45.000;38.612;2023-03-14T08:27:53;6.57;72.67
65040;HTU21D;51606;45.000;38.612;2023-03-14T08:30:21;6.57;72.70
65040;HTU21D;51606;45.000;38.612;2023-03-14T08:32:48;6.59;72.67
65040;HTU21D;51606;45.000;38.612;2023-03-14T08:35:14;6.64;72.64
65040;HTU21D;51606;45.000;38.612;2023-03-14T08:37:41;6.65;72.55
65040;HTU21D;51606;45.000;38.612;2023-03-14T08:40:08;6.63;72.53
65040;HTU21D;51606;45.000;38.612;2023-03-14T08:42:36;6.67;72.57
65040;HTU21D;51606;45.000;38.612;2023-03-14T08:45:04;6.67;72.61
65040;HTU21D;51606;45.000;38.612;2023-03-14T08:47:30;6.67;72.62
65040;HTU21D;51606;45.000;38.612;2023-03-14T08:49:57;6.68;72.57
65040;HTU21D;51606;45.000;38.612;2023-03-14T08:52:23;6.65;72.61
65040;HTU21D;51606;45.000;38.612;2023-03-14T08:54:50;6.63;72.75
65040;HTU21D;51606;45.000;38.612;2023-03-14T08:57:16;6.59;72.82
65040;HTU21D;51606;45.000;38.612;2023-03-14T08:59:42;6.54;72.87
65040;HTU21D;51606;45.000;38.612;2023-03-14T09:02:10;6.46;72.96
65040;HTU21D;51606;45.000;38.612;2023-03-14T09:04:37;6.40;73.13
65040;HTU21D;51606;45.000;38.612;2023-03-14T09:07:03;6.37;73.23
65040;HTU21D;51606;45.000;38.612;2023-03-14T09:09:30;6.38;73.35
65040;HTU21D;51606;45.000;38.612;2023-03-14T09:11:57;6.38;73.40
65040;HTU21D;51606;45.000;38.612;2023-03-14T09:14:24;6.39;73.40
65040;HTU21D;51606;45.000;38.612;2023-03-14T09:16:50;6.43;73.36
65040;HTU21D;51606;45.000;38.612;2023-03-14T09:19:17;6.48;73.32
65040;HTU21D;51606;45.000;38.612;2023-03-14T09:21:43;6.51;73.29
65040;HTU21D;51606;45.000;38.612;2023-03-14T09:24:09;6.53;73.21
65040;HTU21D;51606;45.000;38.612;2023-03-14T09:26:35;6.54;73.14
65040;HTU21D;51606;45.000;38.612;2023-03-14T09:29:02;6.58;73.13
65040;HTU21D;51606;45.000;38.612;2023-03-14T09:31:28;6.60;73.11
65040;HTU21D;51606;45.000;38.612;2023-03-14T09:33:55;6.63;73.06
65040;HTU21D;51606;45.000;38.612;2023-03-14T09:36:22;6.60;73.03
65040;HTU21D;51606;45.000;38.612;2023-03-14T09:38:48;6.60;73.09
65040;HTU21D;51606;45.000;38.612;2023-03-14T09:41:18;6.59;73.15
65040;HTU21D;51606;45.000;38.612;2023-03-14T09:43:48;6.60;73.21
65040;HTU21D;51606;45.000;38.612;2023-03-14T09:46:16;6.61;73.23
65040;HTU21D;51606;45.000;38.612;2023-03-14T09:48:44;6.63;73.28
65040;HTU21D;51606;45.000;38.612;2023-03-14T09:51:14;6.65;73.31
65040;HTU21D;51606;45.000;38.612;2023-03-14T09:53:47;6.67;73.31
65040;HTU21D;51606;45.000;38.612;2023-03-14T09:56:24;6.71;73.28
65040;HTU21D;51606;45.000;38.612;2023-03-14T09:59:03;6.79;73.21
65040;HTU21D;51606;45.000;38.612;2023-03-14T10:01:33;6.86;73.18
65040;HTU21D;51606;45.000;38.612;2023-03-14T10:04:10;6.93;73.14
65040;HTU21D;51606;45.000;38.612;2023-03-14T10:06:39;6.98;73.10
65040;HTU21D;51606;45.000;38.612;2023-03-14T10:09:05;7.01;73.09
65040;HTU21D;51606;45.000;38.612;2023-03-14T10:11:34;7.01;73.05
65040;HTU21D;51606;45.000;38.612;2023-03-14T10:14:06;7.03;73.06
65040;HTU21D;51606;45.000;38.612;2023-03-14T10:16:37;7.05;73.08
65040;HTU21D;51606;45.000;38.612;2023-03-14T10:19:14;7.04;73.12
65040;HTU21D;51606;45.000;38.612;2023-03-14T10:21:44;7.03;73.12
65040;HTU21D;51606;45.000;38.612;2023-03-14T10:26:53;7.08;73.06
65040;HTU21D;51606;45.000;38.612;2023-03-14T10:29:20;7.10;73.00
65040;HTU21D;51606;45.000;38.612;2023-03-14T10:31:52;7.11;72.97
65040;HTU21D;51606;45.000;38.612;2023-03-14T10:34:26;7.13;73.00
65040;HTU21D;51606;45.000;38.612;2023-03-14T10:36:55;7.14;72.95
65040;HTU21D;51606;45.000;38.612;2023-03-14T10:39:26;7.16;72.90
65040;HTU21D;51606;45.000;38.612;2023-03-14T10:41:56;7.17;72.78
65040;HTU21D;51606;45.000;38.612;2023-03-14T10:44:28;7.16;72.67
65040;HTU21D;51606;45.000;38.612;2023-03-14T10:47:04;7.17;72.49
65040;HTU21D;51606;45.000;38.612;2023-03-14T10:49:34;7.16;72.38
65040;HTU21D;51606;45.000;38.612;2023-03-14T10:54:35;7.19;72.34
65040;HTU21D;51606;45.000;38.612;2023-03-14T10:57:04;7.23;72.37
65040;HTU21D;51606;45.000;38.612;2023-03-14T10:59:36;7.27;72.30
65040;HTU21D;51606;45.000;38.612;2023-03-14T11:07:44;7.39;71.86
65040;HTU21D;51606;45.000;38.612;2023-03-14T11:13:39;7.34;71.83
65040;HTU21D;51606;45.000;38.612;2023-03-14T11:19:11;7.32;71.77
65040;HTU21D;51606;45.000;38.612;2023-03-14T11:21:59;7.31;71.66
65040;HTU21D;51606;45.000;38.612;2023-03-14T11:24:38;7.31;71.62
65040;HTU21D;51606;45.000;38.612;2023-03-14T11:40:27;7.41;71.67
65040;HTU21D;51606;45.000;38.612;2023-03-14T11:43:04;7.45;71.69
65040;HTU21D;51606;45.000;38.612;2023-03-14T11:45:38;7.48;71.65
65040;HTU21D;51606;45.000;38.612;2023-03-14T11:50:50;7.59;71.62
65040;HTU21D;51606;45.000;38.612;2023-03-14T11:56:34;7.69;71.53
65040;HTU21D;51606;45.000;38.612;2023-03-14T11:59:09;7.81;71.48
65040;HTU21D;51606;45.000;38.612;2023-03-14T12:02:03;7.90;71.38
65040;HTU21D;51606;45.000;38.612;2023-03-14T12:07:33;8.21;71.15
65040;HTU21D;51606;45.000;38.612;2023-03-14T12:10:03;8.34;71.00
65040;HTU21D;51606;45.000;38.612;2023-03-14T12:12:30;8.43;70.93
65040;HTU21D;51606;45.000;38.612;2023-03-14T12:15:00;8.51;70.90
65040;HTU21D;51606;45.000;38.612;2023-03-14T12:17:36;8.60;70.82
65040;HTU21D;51606;45.000;38.612;2023-03-14T12:20:15;8.66;70.70
65040;HTU21D;51606;45.000;38.612;2023-03-14T12:23:09;8.71;70.61
65040;HTU21D;51606;45.000;38.612;2023-03-14T12:25:34;8.80;70.62
65040;HTU21D;51606;45.000;38.612;2023-03-14T12:28:04;8.89;70.52
65040;HTU21D;51606;45.000;38.612;2023-03-14T12:30:37;9.03;70.42
65040;HTU21D;51606;45.000;38.612;2023-03-14T12:35:38;9.17;70.25
65040;HTU21D;51606;45.000;38.612;2023-03-14T12:38:13;9.22;70.28
65040;HTU21D;51606;45.000;38.612;2023-03-14T12:40:58;9.31;70.19
65040;HTU21D;51606;45.000;38.612;2023-03-14T12:43:28;9.40;70.10
65040;HTU21D;51606;45.000;38.612;2023-03-14T12:48:49;9.94;69.39
65040;HTU21D;51606;45.000;38.612;2023-03-14T12:51:27;10.04;69.03
65040;HTU21D;51606;45.000;38.612;2023-03-14T12:59:45;9.99;69.16
65040;HTU21D;51606;45.000;38.612;2023-03-14T13:02:28;9.90;69.20
65040;HTU21D;51606;45.000;38.612;2023-03-14T13:05:11;9.80;69.25
65040;HTU21D;51606;45.000;38.612;2023-03-14T13:15:30;9.74;69.09
65040;HTU21D;51606;45.000;38.612;2023-03-14T13:20:44;9.63;69.12
65040;HTU21D;51606;45.000;38.612;2023-03-14T13:23:25;9.60;69.13
65040;HTU21D;51606;45.000;38.612;2023-03-14T13:25:53;9.60;69.21
65040;HTU21D;51606;45.000;38.612;2023-03-14T13:28:20;9.60;69.28
65040;HTU21D;51606;45.000;38.612;2023-03-14T13:30:48;9.67;69.28
65040;HTU21D;51606;45.000;38.612;2023-03-14T13:33:18;9.75;69.20
65040;HTU21D;51606;45.000;38.612;2023-03-14T13:35:47;9.79;69.13
65040;HTU21D;51606;45.000;38.612;2023-03-14T13:38:20;9.76;69.16
65040;HTU21D;51606;45.000;38.612;2023-03-14T13:40:47;9.70;69.17
65040;HTU21D;51606;45.000;38.612;2023-03-14T13:43:18;9.68;69.32
65040;HTU21D;51606;45.000;38.612;2023-03-14T13:45:53;9.71;69.33
65040;HTU21D;51606;45.000;38.612;2023-03-14T13:48:25;9.71;69.27
65040;HTU21D;51606;45.000;38.612;2023-03-14T13:50:59;9.69;69.31
65040;HTU21D;51606;45.000;38.612;2023-03-14T13:53:27;9.70;69.34
65040;HTU21D;51606;45.000;38.612;2023-03-14T13:55:54;9.70;69.40
65040;HTU21D;51606;45.000;38.612;2023-03-14T13:58:25;9.70;69.47
65040;HTU21D;51606;45.000;38.612;2023-03-14T14:03:49;9.63;69.55
65040;HTU21D;51606;45.000;38.612;2023-03-14T14:06:29;9.61;69.68
65040;HTU21D;51606;45.000;38.612;2023-03-14T14:08:59;9.56;69.73
65040;HTU21D;51606;45.000;38.612;2023-03-14T14:11:42;9.51;69.84
65040;HTU21D;51606;45.000;38.612;2023-03-14T14:14:24;9.46;69.94
65040;HTU21D;51606;45.000;38.612;2023-03-14T14:16:52;9.40;69.98
65040;HTU21D;51606;45.000;38.612;2023-03-14T14:19:22;9.37;70.07
65040;HTU21D;51606;45.000;38.612;2023-03-14T14:21:49;9.31;70.13
65040;HTU21D;51606;45.000;38.612;2023-03-14T14:24:16;9.25;70.20
65040;HTU21D;51606;45.000;38.612;2023-03-14T14:26:53;9.23;70.26
65040;HTU21D;51606;45.000;38.612;2023-03-14T14:29:38;9.19;70.29
65040;HTU21D;51606;45.000;38.612;2023-03-14T14:34:55;9.12;70.35
65040;HTU21D;51606;45.000;38.612;2023-03-14T14:37:31;9.10;70.35
65040;HTU21D;51606;45.000;38.612;2023-03-14T14:40:07;9.06;70.39
65040;HTU21D;51606;45.000;38.612;2023-03-14T14:42:34;9.03;70.43
65040;HTU21D;51606;45.000;38.612;2023-03-14T14:45:02;8.98;70.48
65040;HTU21D;51606;45.000;38.612;2023-03-14T14:47:29;8.94;70.54
65040;HTU21D;51606;45.000;38.612;2023-03-14T14:50:00;8.93;70.62
65040;HTU21D;51606;45.000;38.612;2023-03-14T14:52:44;8.90;70.71
65040;HTU21D;51606;45.000;38.612;2023-03-14T14:55:18;8.86;70.76
65040;HTU21D;51606;45.000;38.612;2023-03-14T14:57:51;8.82;70.80
65040;HTU21D;51606;45.000;38.612;2023-03-14T15:00:20;8.79;70.86
65040;HTU21D;51606;45.000;38.612;2023-03-14T15:02:49;8.77;70.94
65040;HTU21D;51606;45.000;38.612;2023-03-14T15:05:23;8.75;70.98
65040;HTU21D;51606;45.000;38.612;2023-03-14T15:07:50;8.72;70.99
65040;HTU21D;51606;45.000;38.612;2023-03-14T15:10:22;8.72;71.02
65040;HTU21D;51606;45.000;38.612;2023-03-14T15:12:48;8.68;71.03
65040;HTU21D;51606;45.000;38.612;2023-03-14T15:15:16;8.65;71.07
65040;HTU21D;51606;45.000;38.612;2023-03-14T15:17:43;8.64;71.11
65040;HTU21D;51606;45.000;38.612;2023-03-14T15:20:13;8.61;71.14
65040;HTU21D;51606;45.000;38.612;2023-03-14T15:22:40;8.57;71.17
65040;HTU21D;51606;45.000;38.612;2023-03-14T15:25:08;8.53;71.22
65040;HTU21D;51606;45.000;38.612;2023-03-14T15:27:36;8.49;71.26
65040;HTU21D;51606;45.000;38.612;2023-03-14T15:30:05;8.44;71.32
65040;HTU21D;51606;45.000;38.612;2023-03-14T15:33:06;8.41;71.40
65040;HTU21D;51606;45.000;38.612;2023-03-14T15:35:36;8.34;71.45
65040;HTU21D;51606;45.000;38.612;2023-03-14T15:38:02;8.26;71.51
65040;HTU21D;51606;45.000;38.612;2023-03-14T15:40:29;8.22;71.60
65040;HTU21D;51606;45.000;38.612;2023-03-14T15:42:55;8.21;71.64
65040;HTU21D;51606;45.000;38.612;2023-03-14T15:45:22;8.19;71.64
65040;HTU21D;51606;45.000;38.612;2023-03-14T15:47:48;8.20;71.61
65040;HTU21D;51606;45.000;38.612;2023-03-14T15:50:15;8.18;71.58
65040;HTU21D;51606;45.000;38.612;2023-03-14T15:52:41;8.17;71.57
65040;HTU21D;51606;45.000;38.612;2023-03-14T15:55:08;8.16;71.60
65040;HTU21D;51606;45.000;38.612;2023-03-14T15:57:34;8.14;71.60
65040;HTU21D;51606;45.000;38.612;2023-03-14T16:00:01;8.11;71.62
65040;HTU21D;51606;45.000;38.612;2023-03-14T16:02:27;8.07;71.68
65040;HTU21D;51606;45.000;38.612;2023-03-14T16:04:54;8.04;71.74
65040;HTU21D;51606;45.000;38.612;2023-03-14T16:07:20;8.02;71.79
65040;HTU21D;51606;45.000;38.612;2023-03-14T16:09:46;7.98;71.87
65040;HTU21D;51606;45.000;38.612;2023-03-14T16:12:12;7.97;71.93
65040;HTU21D;51606;45.000;38.612;2023-03-14T16:14:39;7.94;71.93
65040;HTU21D;51606;45.000;38.612;2023-03-14T16:17:08;7.92;71.94
65040;HTU21D;51606;45.000;38.612;2023-03-14T16:19:36;7.91;71.96
65040;HTU21D;51606;45.000;38.612;2023-03-14T16:22:03;7.89;71.96
65040;HTU21D;51606;45.000;38.612;2023-03-14T16:24:29;7.87;71.99
65040;HTU21D;51606;45.000;38.612;2023-03-14T16:26:55;7.87;72.02
65040;HTU21D;51606;45.000;38.612;2023-03-14T16:29:22;7.84;72.04
65040;HTU21D;51606;45.000;38.612;2023-03-14T16:31:48;7.82;72.09
65040;HTU21D;51606;45.000;38.612;2023-03-14T16:34:15;7.79;72.16
65040;HTU21D;51606;45.000;38.612;2023-03-14T16:36:41;7.84;72.19
65040;HTU21D;51606;45.000;38.612;2023-03-14T16:39:08;7.89;72.10
65040;HTU21D;51606;45.000;38.612;2023-03-14T16:41:34;7.93;72.05
65040;HTU21D;51606;45.000;38.612;2023-03-14T16:44:01;8.02;72.01
65040;HTU21D;51606;45.000;38.612;2023-03-14T16:46:28;8.11;72.00
65040;HTU21D;51606;45.000;38.612;2023-03-14T16:48:55;8.23;71.99
65040;HTU21D;51606;45.000;38.612;2023-03-14T16:51:23;8.35;71.94
65040;HTU21D;51606;45.000;38.612;2023-03-14T16:53:50;8.46;71.83
65040;HTU21D;51606;45.000;38.612;2023-03-14T16:56:16;8.52;71.81
65040;HTU21D;51606;45.000;38.612;2023-03-14T16:58:43;8.59;71.78
65040;HTU21D;51606;45.000;38.612;2023-03-14T17:01:11;8.62;71.81
65040;HTU21D;51606;45.000;38.612;2023-03-14T17:03:40;8.68;71.84
65040;HTU21D;51606;45.000;38.612;2023-03-14T17:06:07;8.73;71.75
65040;HTU21D;51606;45.000;38.612;2023-03-14T17:08:33;8.76;71.73
65040;HTU21D;51606;45.000;38.612;2023-03-14T17:11:00;8.77;71.67
65040;HTU21D;51606;45.000;38.612;2023-03-14T17:13:26;8.78;71.67
65040;HTU21D;51606;45.000;38.612;2023-03-14T17:15:54;8.78;71.71
65040;HTU21D;51606;45.000;38.612;2023-03-14T17:18:22;8.78;71.74
65040;HTU21D;51606;45.000;38.612;2023-03-14T17:20:53;8.77;71.77
65040;HTU21D;51606;45.000;38.612;2023-03-14T17:23:21;8.78;71.74
65040;HTU21D;51606;45.000;38.612;2023-03-14T17:25:49;8.77;71.71
65040;HTU21D;51606;45.000;38.612;2023-03-14T17:28:17;8.73;71.73
65040;HTU21D;51606;45.000;38.612;2023-03-14T17:30:44;8.74;71.76
65040;HTU21D;51606;45.000;38.612;2023-03-14T17:33:11;8.72;71.75
65040;HTU21D;51606;45.000;38.612;2023-03-14T17:35:38;8.74;71.71
65040;HTU21D;51606;45.000;38.612;2023-03-14T17:38:04;8.74;71.67
65040;HTU21D;51606;45.000;38.612;2023-03-14T17:51:53;8.71;71.37
65040;HTU21D;51606;45.000;38.612;2023-03-14T17:54:19;8.67;71.45
65040;HTU21D;51606;45.000;38.612;2023-03-14T17:56:45;8.64;71.49
65040;HTU21D;51606;45.000;38.612;2023-03-14T17:59:14;8.62;71.52
65040;HTU21D;51606;45.000;38.612;2023-03-14T18:01:41;8.61;71.50
65040;HTU21D;51606;45.000;38.612;2023-03-14T18:04:07;8.59;71.48
65040;HTU21D;51606;45.000;38.612;2023-03-14T18:06:34;8.58;71.48
65040;HTU21D;51606;45.000;38.612;2023-03-14T18:09:01;8.55;71.49
65040;HTU21D;51606;45.000;38.612;2023-03-14T18:11:29;8.50;71.55
65040;HTU21D;51606;45.000;38.612;2023-03-14T18:13:56;8.48;71.55
65040;HTU21D;51606;45.000;38.612;2023-03-14T18:16:22;8.47;71.55
65040;HTU21D;51606;45.000;38.612;2023-03-14T18:18:49;8.47;71.49
65040;HTU21D;51606;45.000;38.612;2023-03-14T18:21:16;8.46;71.43
65040;HTU21D;51606;45.000;38.612;2023-03-14T18:23:43;8.46;71.35
65040;HTU21D;51606;45.000;38.612;2023-03-14T18:26:10;8.42;71.40
65040;HTU21D;51606;45.000;38.612;2023-03-14T18:28:36;8.43;71.39
65040;HTU21D;51606;45.000;38.612;2023-03-14T18:31:06;8.39;71.38
65040;HTU21D;51606;45.000;38.612;2023-03-14T18:33:33;8.37;71.38
65040;HTU21D;51606;45.000;38.612;2023-03-14T18:36:03;8.37;71.35
65040;HTU21D;51606;45.000;38.612;2023-03-14T18:38:30;8.35;71.32
65040;HTU21D;51606;45.000;38.612;2023-03-14T18:41:06;8.36;71.30
65040;HTU21D;51606;45.000;38.612;2023-03-14T18:43:32;8.33;71.30
65040;HTU21D;51606;45.000;38.612;2023-03-14T18:45:59;8.32;71.32
65040;HTU21D;51606;45.000;38.612;2023-03-14T18:48:26;8.32;71.32
65040;HTU21D;51606;45.000;38.612;2023-03-14T18:50:52;8.29;71.30
65040;HTU21D;51606;45.000;38.612;2023-03-14T18:53:19;8.32;71.26
65040;HTU21D;51606;45.000;38.612;2023-03-14T18:55:47;8.32;71.22
65040;HTU21D;51606;45.000;38.612;2023-03-14T18:58:13;8.30;71.20
65040;HTU21D;51606;45.000;38.612;2023-03-14T19:00:39;8.28;71.22
